Lana Louise — WDC2702 — position and weather

sailwx.info

Track history (hours):
 
Tides and Currents Weather Stations Pressure Air Temp Water Temp Dewpoint Dewpoint Depression Visibility Wind Speed Wind Dir Waves Ship Positions

Lana Louise

Owner: Kirby Inland Marine LP, Houston, TX. More information available from US FCC via Universal Licensing System and Coast Guard Vessel Documentation Center.

Last reported at 2018-Jan-19 09:42 UTC. Time now 2018-Jan-20 17:19 UTC.
Position N 29°32' W 094°54'.

Length 105 m; draft 2.6 m.

Type: . MMSI: 366996580.

Date/timePositionNaut miles runAvg speedWind from/ knotsBaromVisibWave heightAir tempDewpointWater temp
2018-Jan-19 09:42N 29°32' W 094°54'1 6.0
2018-Jan-19 09:31N 29°33' W 094°54'3 6.2
2018-Jan-19 09:00N 29°35' W 094°56'3 6.1
2018-Jan-19 08:30N 29°38' W 094°58'3 6.1
2018-Jan-19 08:00N 29°41' W 094°59'4 5.8
2018-Jan-19 07:20N 29°44' W 095°02'4 0.3
2018-Jan-18 18:56N 29°46' W 095°05'  
2018-Jan-12 12:38N 29°45' W 095°06'0 0.0
2018-Jan-12 12:22N 29°45' W 095°06'1 0.1
2018-Jan-11 19:14N 29°46' W 095°05'1 0.3
2018-Jan-11 15:54N 29°45' W 095°06'2 0.7
2018-Jan-11 12:39N 29°44' W 095°03'1 4.6
2018-Jan-11 12:29N 29°44' W 095°03'2 3.7
2018-Jan-11 11:58N 29°43' W 095°01'2 4.5
2018-Jan-11 11:30N 29°41' W 094°59'2 4.7
2018-Jan-11 11:00N 29°39' W 094°58'2 4.5
2018-Jan-11 10:29N 29°37' W 094°57'2 4.8
2018-Jan-11 10:00N 29°35' W 094°56'3 5.2
2018-Jan-11 09:31N 29°33' W 094°54'3 5.1
2018-Jan-11 09:00N 29°31' W 094°53'2 0.0
2018-Jan-09 13:03N 29°29' W 094°52'0 5.4
2018-Jan-09 13:00N 29°29' W 094°52'3 5.3
2018-Jan-09 12:30N 29°32' W 094°54'  
Track history (hours):
 
Tides and Currents Weather Stations Pressure Air Temp Water Temp Dewpoint Dewpoint Depression Visibility Wind Speed Wind Dir Waves Ship Positions

Lana Louise

Owner: Kirby Inland Marine LP, Houston, TX. More information available from US FCC via Universal Licensing System and Coast Guard Vessel Documentation Center.

Last reported at 2018-Jan-19 09:42 UTC. Time now 2018-Jan-20 17:19 UTC.
Position N 29°32' W 094°54'.

Length 105 m; draft 2.6 m.

Type: . MMSI: 366996580.

Date/timePositionNaut miles runAvg speedWind from/ knotsBaromVisibWave heightAir tempDewpointWater temp
2018-Jan-19 09:42N 29°32' W 094°54'1 6.0
2018-Jan-19 09:31N 29°33' W 094°54'3 6.2
2018-Jan-19 09:00N 29°35' W 094°56'3 6.1
2018-Jan-19 08:30N 29°38' W 094°58'3 6.1
2018-Jan-19 08:00N 29°41' W 094°59'4 5.8
2018-Jan-19 07:20N 29°44' W 095°02'4 0.3
2018-Jan-18 18:56N 29°46' W 095°05'  
2018-Jan-12 12:38N 29°45' W 095°06'0 0.0
2018-Jan-12 12:22N 29°45' W 095°06'1 0.1
2018-Jan-11 19:14N 29°46' W 095°05'1 0.3
2018-Jan-11 15:54N 29°45' W 095°06'2 0.7
2018-Jan-11 12:39N 29°44' W 095°03'1 4.6
2018-Jan-11 12:29N 29°44' W 095°03'2 3.7
2018-Jan-11 11:58N 29°43' W 095°01'2 4.5
2018-Jan-11 11:30N 29°41' W 094°59'2 4.7
2018-Jan-11 11:00N 29°39' W 094°58'2 4.5
2018-Jan-11 10:29N 29°37' W 094°57'2 4.8
2018-Jan-11 10:00N 29°35' W 094°56'3 5.2
2018-Jan-11 09:31N 29°33' W 094°54'3 5.1
2018-Jan-11 09:00N 29°31' W 094°53'2 0.0
2018-Jan-09 13:03N 29°29' W 094°52'0 5.4
2018-Jan-09 13:00N 29°29' W 094°52'3 5.3
2018-Jan-09 12:30N 29°32' W 094°54'  

Dump ship's entire track history